createdAt,value
2018-09-03T00:00:56.105Z,102173.66
2018-09-03T00:03:24.331Z,102165.73
2018-09-03T00:05:52.826Z,102164.28
2018-09-03T00:08:21.061Z,102159.30
2018-09-03T00:10:49.489Z,102156.37
2018-09-03T00:13:17.696Z,102153.83
2018-09-03T00:15:45.907Z,102151.73
2018-09-03T00:18:14.154Z,102149.00
2018-09-03T00:20:42.392Z,102140.03
2018-09-03T00:23:10.690Z,102141.13
2018-09-03T00:25:39.037Z,102137.36
2018-09-03T00:28:07.284Z,102136.02
2018-09-03T00:30:35.628Z,102131.25
2018-09-03T00:33:21.714Z,102130.05
2018-09-03T00:36:07.744Z,102118.64
2018-09-03T00:38:53.448Z,102121.55
2018-09-03T00:41:39.675Z,102119.78
2018-09-03T00:44:25.803Z,102119.96
2018-09-03T00:47:00.168Z,102120.88
2018-09-03T00:49:30.128Z,102124.94
2018-09-03T00:51:58.403Z,102119.67
2018-09-03T00:54:26.599Z,102125.08
2018-09-03T00:56:54.805Z,102115.05
2018-09-03T00:59:23.027Z,102111.52
2018-09-03T01:01:51.282Z,102112.75
2018-09-03T01:04:19.628Z,102111.00
2018-09-03T01:06:47.893Z,102112.52
2018-09-03T01:09:16.075Z,102111.13
2018-09-03T01:11:44.335Z,102115.66
2018-09-03T01:14:12.551Z,102115.95
2018-09-03T01:16:41.017Z,102117.94
2018-09-03T01:19:09.195Z,102113.17
2018-09-03T01:21:37.453Z,102112.70
2018-09-03T01:24:05.733Z,102112.56
2018-09-03T01:26:34.006Z,102119.02
2018-09-03T01:29:02.226Z,102125.41
2018-09-03T01:31:30.466Z,102120.64
2018-09-03T01:33:58.648Z,102123.36
2018-09-03T01:36:26.827Z,102114.84
2018-09-03T01:38:55.092Z,102117.86
2018-09-03T01:41:23.390Z,102113.75
2018-09-03T01:43:51.634Z,102113.17
2018-09-03T01:46:19.849Z,102104.91
2018-09-03T01:48:48.123Z,102098.23
2018-09-03T01:51:16.445Z,102096.61
2018-09-03T01:53:44.673Z,102089.11
2018-09-03T01:56:13.119Z,102091.73
2018-09-03T01:58:41.396Z,102090.50
2018-09-03T02:01:09.784Z,102091.03
2018-09-03T02:03:38.106Z,102085.73
2018-09-03T02:06:06.475Z,102079.81
2018-09-03T02:08:34.892Z,102084.39
2018-09-03T02:11:03.164Z,102083.00
2018-09-03T02:13:32.680Z,102081.67
2018-09-03T02:16:00.972Z,102080.38
2018-09-03T02:18:29.165Z,102081.84
2018-09-03T02:20:57.456Z,102080.56
2018-09-03T02:23:25.776Z,102073.20
2018-09-03T02:25:53.973Z,102069.36
2018-09-03T02:28:22.248Z,102067.20
2018-09-03T02:30:50.573Z,102064.59
2018-09-03T02:33:18.780Z,102065.97
2018-09-03T02:35:47.012Z,102067.16
2018-09-03T02:38:15.280Z,102067.16
2018-09-03T02:40:43.574Z,102070.74
2018-09-03T02:43:11.810Z,102069.72
2018-09-03T02:45:40.072Z,102075.79
2018-09-03T02:48:08.380Z,102075.98
2018-09-03T02:50:37.026Z,102076.09
2018-09-03T02:53:05.242Z,102075.98
2018-09-03T02:55:33.478Z,102070.24
2018-09-03T02:58:01.714Z,102060.28
2018-09-03T03:00:30.092Z,102067.95
2018-09-03T03:02:58.981Z,102057.22
2018-09-03T03:05:28.492Z,102051.11
2018-09-03T03:07:57.214Z,102052.92
2018-09-03T03:10:25.505Z,102051.06
2018-09-03T03:12:53.788Z,102054.95
2018-09-03T03:15:22.019Z,102050.14
2018-09-03T03:17:50.283Z,102056.06
2018-09-03T03:20:18.537Z,102054.91
2018-09-03T03:22:46.794Z,102055.02
2018-09-03T03:25:14.983Z,102051.81
2018-09-03T03:27:43.169Z,102053.97
2018-09-03T03:30:11.520Z,102046.60
2018-09-03T03:32:40.119Z,102053.72
2018-09-03T03:35:09.433Z,102051.19
2018-09-03T03:37:37.720Z,102049.38
2018-09-03T03:40:06.171Z,102047.68
2018-09-03T03:42:34.454Z,102038.62
2018-09-03T03:45:02.850Z,102038.80
2018-09-03T03:47:31.073Z,102038.17
2018-09-03T03:49:59.355Z,102037.47
2018-09-03T03:52:27.737Z,102028.41
2018-09-03T03:54:55.870Z,102028.74
2018-09-03T03:57:24.156Z,102019.34
2018-09-03T03:59:52.384Z,102020.39
2018-09-03T04:02:20.639Z,102022.30
2018-09-03T04:04:49.250Z,102020.20
2018-09-03T04:07:18.086Z,102021.25
2018-09-03T04:09:46.304Z,102017.95
2018-09-03T04:12:14.686Z,102026.91
2018-09-03T04:14:42.900Z,102021.22
2018-09-03T04:17:11.164Z,102023.95
2018-09-03T04:19:39.377Z,102010.54
2018-09-03T04:22:07.620Z,102024.45
2018-09-03T04:24:36.000Z,102016.61
2018-09-03T04:27:04.374Z,102026.02
2018-09-03T04:29:32.684Z,102024.97
2018-09-03T04:32:01.344Z,102022.67
2018-09-03T04:34:31.855Z,102021.38
2018-09-03T04:36:58.505Z,102022.44
2018-09-03T04:39:26.786Z,102023.05
2018-09-03T04:41:55.077Z,102012.51
2018-09-03T04:44:23.424Z,102014.05
2018-09-03T04:46:51.613Z,102013.08
2018-09-03T04:49:20.256Z,102011.75
2018-09-03T04:51:48.763Z,102008.50
2018-09-03T04:54:17.116Z,102007.27
2018-09-03T04:59:13.091Z,102007.73
2018-09-03T05:01:41.476Z,102003.25
2018-09-03T05:04:09.757Z,102008.17
2018-09-03T05:06:38.123Z,101998.77
2018-09-03T05:09:07.137Z,101992.62
2018-09-03T05:11:35.740Z,101992.47
2018-09-03T05:14:04.923Z,101990.66
2018-09-03T05:16:33.145Z,101984.64
2018-09-03T05:19:01.438Z,101988.47
2018-09-03T05:21:29.818Z,101990.52
2018-09-03T05:23:58.127Z,101991.56
2018-09-03T05:26:26.573Z,102002.54
2018-09-03T05:28:55.067Z,101996.81
2018-09-03T05:31:23.422Z,102006.22
2018-09-03T05:33:51.674Z,102002.39
2018-09-03T05:36:19.914Z,102000.53
2018-09-03T05:38:48.279Z,101998.72
2018-09-03T05:41:16.940Z,101996.20
2018-09-03T05:43:45.258Z,101996.90
2018-09-03T05:46:13.399Z,101994.75
2018-09-03T05:48:41.903Z,101992.36
2018-09-03T05:51:10.420Z,101991.59
2018-09-03T05:53:38.760Z,101990.50
2018-09-03T05:56:06.985Z,101993.98
2018-09-03T05:58:35.233Z,101995.84
2018-09-03T06:01:04.490Z,101992.47
2018-09-03T06:03:32.800Z,101991.80
2018-09-03T06:06:01.305Z,101995.80
2018-09-03T06:08:30.450Z,101992.60
2018-09-03T06:10:58.785Z,102003.87
2018-09-03T06:13:27.085Z,102001.20
2018-09-03T06:15:55.315Z,102003.87
2018-09-03T06:18:23.538Z,102005.02
2018-09-03T06:20:51.690Z,102007.69
2018-09-03T06:23:20.041Z,102009.50
2018-09-03T06:25:48.369Z,102014.03
2018-09-03T06:28:16.781Z,102010.13
2018-09-03T06:30:45.033Z,102003.44
2018-09-03T06:33:13.453Z,102005.34
2018-09-03T06:35:41.795Z,102003.77
2018-09-03T06:38:10.022Z,101999.65
2018-09-03T06:40:38.252Z,102003.23
2018-09-03T06:43:06.588Z,101999.78
2018-09-03T06:45:34.901Z,102000.12
2018-09-03T06:48:03.440Z,102002.46
2018-09-03T06:50:31.742Z,102002.55
2018-09-03T06:53:00.039Z,102001.91
2018-09-03T06:55:28.334Z,101999.19
2018-09-03T06:57:56.649Z,101992.87
2018-09-03T07:00:25.094Z,101997.70
2018-09-03T07:02:53.402Z,101993.97
2018-09-03T07:05:22.567Z,101991.09
2018-09-03T07:07:50.886Z,101998.03
2018-09-03T07:10:19.217Z,102004.47
2018-09-03T07:12:47.423Z,102005.36
2018-09-03T07:15:15.685Z,102001.63
2018-09-03T07:17:43.937Z,101999.48
2018-09-03T07:20:12.495Z,101990.81
2018-09-03T07:22:40.730Z,101985.51
2018-09-03T07:25:09.058Z,101984.84
2018-09-03T07:27:37.649Z,101987.16
2018-09-03T07:30:05.934Z,101985.38
2018-09-03T07:32:34.278Z,101984.77
2018-09-03T07:35:02.616Z,101995.02
2018-09-03T07:37:30.832Z,101997.73
2018-09-03T07:39:59.144Z,101990.48
2018-09-03T07:42:27.365Z,102004.23
2018-09-03T07:44:55.651Z,102006.33
2018-09-03T07:47:23.802Z,102004.51
2018-09-03T07:49:52.118Z,101999.03
2018-09-03T07:52:20.440Z,101999.48
2018-09-03T07:54:49.235Z,101995.83
2018-09-03T07:57:17.704Z,102001.42
2018-09-03T07:59:45.989Z,101995.68
2018-09-03T08:02:14.261Z,101996.73
2018-09-03T08:04:42.525Z,101993.40
2018-09-03T08:07:10.863Z,101988.12
2018-09-03T08:09:39.186Z,101985.50
2018-09-03T08:12:07.697Z,101989.55
2018-09-03T08:14:36.041Z,101983.06
2018-09-03T08:17:04.310Z,101989.47
2018-09-03T08:19:32.596Z,101980.34
2018-09-03T08:22:01.582Z,101978.81
2018-09-03T08:24:29.808Z,101985.63
2018-09-03T08:26:58.015Z,101975.27
2018-09-03T08:29:26.484Z,101971.83
2018-09-03T08:31:55.723Z,101974.78
2018-09-03T08:34:24.324Z,101971.55
2018-09-03T08:36:52.648Z,101974.63
2018-09-03T08:39:22.018Z,101961.22
2018-09-03T08:41:49.347Z,101963.97
2018-09-03T08:44:17.926Z,101960.71
2018-09-03T08:46:46.237Z,101956.34
2018-09-03T08:49:14.480Z,101957.23
2018-09-03T08:51:42.800Z,101952.60
2018-09-03T08:54:12.919Z,101951.55
2018-09-03T08:56:41.305Z,101950.74
2018-09-03T08:59:09.638Z,101943.58
2018-09-03T09:01:37.875Z,101943.20
2018-09-03T09:04:06.142Z,101939.77
2018-09-03T09:06:34.538Z,101936.35
2018-09-03T09:09:02.793Z,101934.78
2018-09-03T09:11:31.083Z,101933.06
2018-09-03T09:13:59.371Z,101930.12
2018-09-03T09:16:27.795Z,101935.72
2018-09-03T09:18:56.049Z,101931.28
2018-09-03T09:21:24.322Z,101932.78
2018-09-03T09:23:52.623Z,101925.15
2018-09-03T09:26:20.900Z,101916.55
2018-09-03T09:28:49.131Z,101917.73
2018-09-03T09:31:17.478Z,101914.39
2018-09-03T09:33:45.731Z,101911.02
2018-09-03T09:36:14.153Z,101906.17
2018-09-03T09:38:42.400Z,101906.22
2018-09-03T09:41:10.667Z,101906.81
2018-09-03T09:43:38.984Z,101911.95
2018-09-03T09:46:07.323Z,101911.75
2018-09-03T09:48:35.555Z,101906.91
2018-09-03T09:51:04.124Z,101899.66
2018-09-03T09:53:32.370Z,101903.42
2018-09-03T09:56:00.634Z,101904.84
2018-09-03T09:58:29.759Z,101910.55
2018-09-03T10:01:15.822Z,101902.75
2018-09-03T10:03:44.216Z,101899.79
2018-09-03T10:06:12.478Z,101890.16
2018-09-03T10:08:40.887Z,101895.86
2018-09-03T10:11:09.121Z,101888.00
2018-09-03T10:13:37.450Z,101886.39
2018-09-03T10:16:05.739Z,101886.14
2018-09-03T10:18:34.410Z,101885.61
2018-09-03T10:21:02.814Z,101883.45
2018-09-03T10:23:31.140Z,101882.91
2018-09-03T10:25:59.563Z,101882.09
2018-09-03T10:28:27.784Z,101875.61
2018-09-03T10:30:56.158Z,101879.58
2018-09-03T10:33:24.464Z,101876.00
2018-09-03T10:35:52.811Z,101870.30
2018-09-03T10:38:21.037Z,101879.32
2018-09-03T10:40:49.313Z,101871.94
2018-09-03T10:43:17.535Z,101873.42
2018-09-03T10:45:46.754Z,101869.23
2018-09-03T10:48:16.296Z,101861.05
2018-09-03T10:50:44.658Z,101857.79
2018-09-03T10:53:13.163Z,101856.55
2018-09-03T10:55:41.897Z,101855.94
2018-09-03T10:58:11.006Z,101854.73
2018-09-03T11:00:39.223Z,101851.95
2018-09-03T11:03:08.317Z,101852.48
2018-09-03T11:05:39.236Z,101844.58
2018-09-03T11:08:07.517Z,101841.68
2018-09-03T11:10:35.752Z,101844.86
2018-09-03T11:13:04.029Z,101840.70
2018-09-03T11:15:32.351Z,101835.53
2018-09-03T11:18:00.589Z,101839.17
2018-09-03T11:20:30.247Z,101832.55
2018-09-03T11:22:59.123Z,101825.69
2018-09-03T11:25:29.461Z,101826.08
2018-09-03T11:27:57.734Z,101815.14
2018-09-03T11:30:26.613Z,101827.84
2018-09-03T11:33:12.911Z,101822.84
2018-09-03T11:35:41.144Z,101813.52
2018-09-03T11:38:09.387Z,101802.78
2018-09-03T11:40:37.635Z,101815.30
2018-09-03T11:43:06.396Z,101800.30
2018-09-03T11:45:34.706Z,101800.08
2018-09-03T11:48:03.202Z,101796.36
2018-09-03T11:50:31.920Z,101788.93
2018-09-03T11:53:00.230Z,101792.41
2018-09-03T11:55:29.248Z,101791.16
2018-09-03T11:57:57.912Z,101784.29
2018-09-03T12:00:27.735Z,101784.29
2018-09-03T12:02:56.082Z,101784.59
2018-09-03T12:05:24.359Z,101778.72
2018-09-03T12:07:52.874Z,101777.02
2018-09-03T12:10:21.228Z,101777.07
2018-09-03T12:12:49.534Z,101772.70
2018-09-03T12:15:42.669Z,101774.20
2018-09-03T12:18:10.998Z,101763.64
2018-09-03T12:20:41.308Z,101767.96
2018-09-03T12:23:09.545Z,101765.09
2018-09-03T12:25:37.898Z,101754.66
2018-09-03T12:28:06.301Z,101753.13
2018-09-03T12:30:34.591Z,101758.67
2018-09-03T12:33:02.898Z,101753.38
2018-09-03T12:35:31.281Z,101751.98
2018-09-03T12:37:59.606Z,101747.02
2018-09-03T12:40:29.161Z,101749.70
2018-09-03T12:42:56.235Z,101739.80
2018-09-03T12:45:43.526Z,101746.02
2018-09-03T12:48:11.961Z,101737.95
2018-09-03T12:50:40.337Z,101733.02
2018-09-03T12:53:08.772Z,101723.24
2018-09-03T12:55:37.211Z,101722.97
2018-09-03T12:58:06.121Z,101722.80
2018-09-03T13:00:38.676Z,101723.58
2018-09-03T13:03:02.925Z,101716.05
2018-09-03T13:05:31.671Z,101717.43
2018-09-03T13:07:59.910Z,101712.67
2018-09-03T13:10:28.268Z,101710.69
2018-09-03T13:12:56.784Z,101718.09
2018-09-03T13:15:33.011Z,101709.39
2018-09-03T13:18:01.405Z,101716.94
2018-09-03T13:20:29.644Z,101712.44
2018-09-03T13:22:58.049Z,101716.80
2018-09-03T13:25:26.397Z,101713.59
2018-09-03T13:27:54.747Z,101711.58
2018-09-03T13:30:23.361Z,101711.60
2018-09-03T13:32:51.668Z,101705.35
2018-09-03T13:35:19.910Z,101700.98
2018-09-03T13:37:48.219Z,101703.33
2018-09-03T13:40:16.685Z,101699.51
2018-09-03T13:42:44.972Z,101696.61
2018-09-03T13:45:13.413Z,101687.02
2018-09-03T13:47:41.915Z,101684.56
2018-09-03T13:50:10.368Z,101690.55
2018-09-03T13:52:38.811Z,101688.84
2018-09-03T13:55:07.684Z,101682.37
2018-09-03T13:57:36.056Z,101679.00
2018-09-03T14:00:23.748Z,101677.29
2018-09-03T14:02:52.048Z,101672.67
2018-09-03T14:05:20.441Z,101678.66
2018-09-03T14:07:48.847Z,101670.63
2018-09-03T14:10:17.345Z,101679.92
2018-09-03T14:12:45.968Z,101670.44
2018-09-03T14:15:14.368Z,101666.31
2018-09-03T14:17:42.925Z,101673.94
2018-09-03T14:20:11.512Z,101669.51
2018-09-03T14:22:39.815Z,101667.60
2018-09-03T14:25:08.300Z,101665.27
2018-09-03T14:27:36.759Z,101660.51
2018-09-03T14:30:05.233Z,101652.94
2018-09-03T14:32:33.651Z,101656.34
2018-09-03T14:35:02.116Z,101665.13
2018-09-03T14:37:30.903Z,101666.76
2018-09-03T14:39:59.311Z,101655.93
2018-09-03T14:42:27.684Z,101662.84
2018-09-03T14:44:56.237Z,101656.52
2018-09-03T14:47:24.840Z,101646.74
2018-09-03T14:49:53.227Z,101646.97
2018-09-03T14:52:21.483Z,101654.79
2018-09-03T14:54:49.901Z,101653.38
2018-09-03T14:57:18.277Z,101647.30
2018-09-03T14:59:46.865Z,101650.86
2018-09-03T15:02:15.342Z,101649.25
2018-09-03T15:04:43.648Z,101646.97
2018-09-03T15:07:12.436Z,101649.20
2018-09-03T15:09:40.724Z,101650.00
2018-09-03T15:12:09.225Z,101647.30
2018-09-03T15:14:37.700Z,101649.50
2018-09-03T15:17:06.517Z,101649.06
2018-09-03T15:19:34.971Z,101650.12
2018-09-03T15:22:03.581Z,101645.89
2018-09-03T15:24:32.091Z,101649.05
2018-09-03T15:27:00.350Z,101651.46
2018-09-03T15:29:28.926Z,101643.09
2018-09-03T15:31:57.904Z,101642.78
2018-09-03T15:34:26.324Z,101651.71
2018-09-03T15:36:54.594Z,101641.08
2018-09-03T15:39:23.092Z,101638.42
2018-09-03T15:41:51.555Z,101639.63
2018-09-03T15:44:20.196Z,101624.42
2018-09-03T15:46:48.920Z,101639.08
2018-09-03T15:49:17.443Z,101639.38
2018-09-03T15:51:46.091Z,101638.53
2018-09-03T15:54:14.951Z,101635.95
2018-09-03T15:56:43.274Z,101644.85
2018-09-03T15:59:11.956Z,101640.66
2018-09-03T16:01:40.807Z,101646.70
2018-09-03T16:04:09.306Z,101644.05
2018-09-03T16:06:37.854Z,101643.75
2018-09-03T16:09:08.881Z,101641.59
2018-09-03T16:11:38.396Z,101639.50
2018-09-03T16:14:07.575Z,101641.66
2018-09-03T16:16:36.192Z,101643.36
2018-09-03T16:19:04.690Z,101647.02
2018-09-03T16:21:33.783Z,101640.86
2018-09-03T16:24:02.073Z,101641.45
2018-09-03T16:26:30.600Z,101637.34
2018-09-03T16:28:59.240Z,101634.16
2018-09-03T16:31:27.829Z,101639.06
2018-09-03T16:33:58.991Z,101642.02
2018-09-03T16:36:27.223Z,101641.36
2018-09-03T16:38:55.556Z,101643.92
2018-09-03T16:41:23.764Z,101643.77
2018-09-03T16:43:52.365Z,101635.45
2018-09-03T16:46:21.072Z,101635.70
2018-09-03T16:48:49.404Z,101644.91
2018-09-03T16:51:17.659Z,101644.47
2018-09-03T16:53:46.202Z,101644.06
2018-09-03T16:56:14.562Z,101648.75
2018-09-03T16:58:42.940Z,101642.64
2018-09-03T17:01:11.265Z,101642.47
2018-09-03T17:03:39.670Z,101645.50
2018-09-03T17:06:16.836Z,101648.00
2018-09-03T17:08:45.111Z,101652.05
2018-09-03T17:11:13.346Z,101648.16
2018-09-03T17:13:41.591Z,101650.18
2018-09-03T17:16:10.248Z,101645.36
2018-09-03T17:18:38.620Z,101645.07
2018-09-03T17:21:07.197Z,101640.69
2018-09-03T17:23:35.605Z,101653.25
2018-09-03T17:26:03.974Z,101649.20
2018-09-03T17:28:32.402Z,101648.98
2018-09-03T17:31:00.768Z,101648.58
2018-09-03T17:33:29.079Z,101655.38
2018-09-03T17:36:00.028Z,101658.66
2018-09-03T17:38:28.245Z,101654.16
2018-09-03T17:40:56.579Z,101652.30
2018-09-03T17:43:25.130Z,101655.61
2018-09-03T17:45:53.560Z,101664.28
2018-09-03T17:48:22.505Z,101660.09
2018-09-03T17:50:50.882Z,101659.12
2018-09-03T17:53:19.309Z,101663.48
2018-09-03T17:55:48.053Z,101673.53
2018-09-03T17:58:16.573Z,101672.66
2018-09-03T18:00:44.917Z,101675.09
2018-09-03T18:03:13.578Z,101670.80
2018-09-03T18:05:42.638Z,101674.58
2018-09-03T18:08:11.423Z,101675.98
2018-09-03T18:10:39.672Z,101683.25
2018-09-03T18:13:09.494Z,101670.38
2018-09-03T18:15:36.738Z,101672.52
2018-09-03T18:18:05.082Z,101683.89
2018-09-03T18:20:33.579Z,101682.50
2018-09-03T18:23:02.424Z,101685.84
2018-09-03T18:25:31.410Z,101694.67
2018-09-03T18:28:00.284Z,101693.36
2018-09-03T18:30:29.392Z,101693.36
2018-09-03T18:32:58.108Z,101697.78
2018-09-03T18:35:27.001Z,101695.98
2018-09-03T18:37:55.592Z,101698.95
2018-09-03T18:40:24.164Z,101693.82
2018-09-03T18:42:52.888Z,101697.94
2018-09-03T18:45:21.778Z,101693.94
2018-09-03T18:47:50.656Z,101695.81
2018-09-03T18:50:19.351Z,101695.80
2018-09-03T18:52:47.871Z,101693.64
2018-09-03T18:55:16.641Z,101702.80
2018-09-03T18:57:45.004Z,101702.02
2018-09-03T19:00:14.508Z,101703.36
2018-09-03T19:02:43.318Z,101707.67
2018-09-03T19:05:12.021Z,101707.66
2018-09-03T19:07:41.312Z,101707.41
2018-09-03T19:10:10.524Z,101706.59
2018-09-03T19:12:39.684Z,101710.91
2018-09-03T19:15:08.418Z,101719.25
2018-09-03T19:17:36.857Z,101712.81
2018-09-03T19:20:05.451Z,101714.14
2018-09-03T19:22:34.042Z,101719.27
2018-09-03T19:25:02.767Z,101717.92
2018-09-03T19:27:31.193Z,101720.86
2018-09-03T19:29:59.699Z,101728.15
2018-09-03T19:32:27.996Z,101727.88
2018-09-03T19:34:56.643Z,101724.14
2018-09-03T19:37:24.992Z,101730.06
2018-09-03T19:39:55.634Z,101730.30
2018-09-03T19:42:23.956Z,101725.22
2018-09-03T19:44:52.585Z,101732.76
2018-09-03T19:47:21.105Z,101727.63
2018-09-03T19:49:49.743Z,101735.70
2018-09-03T19:55:25.506Z,101732.75
2018-09-03T19:57:54.258Z,101741.34
2018-09-03T20:00:23.435Z,101737.05
2018-09-03T20:02:51.983Z,101738.13
2018-09-03T20:05:20.566Z,101742.95
2018-09-03T20:07:49.303Z,101747.26
2018-09-03T20:10:18.156Z,101747.53
2018-09-03T20:12:46.823Z,101747.80
2018-09-03T20:15:25.114Z,101746.46
2018-09-03T20:17:54.789Z,101751.54
2018-09-03T20:20:23.884Z,101748.87
2018-09-03T20:22:52.361Z,101753.36
2018-09-03T20:25:21.756Z,101751.22
2018-09-03T20:27:53.665Z,101742.61
2018-09-03T20:30:22.551Z,101746.82
2018-09-03T20:32:51.315Z,101744.94
2018-09-03T20:35:20.230Z,101745.73
2018-09-03T20:37:48.826Z,101747.08
2018-09-03T20:40:17.387Z,101751.38
2018-09-03T20:42:46.046Z,101754.81
2018-09-03T20:45:14.541Z,101757.28
2018-09-03T20:47:42.970Z,101755.95
2018-09-03T20:50:11.910Z,101751.36
2018-09-03T20:52:40.787Z,101755.41
2018-09-03T20:55:09.372Z,101755.95
2018-09-03T20:57:38.107Z,101752.88
2018-09-03T21:00:07.345Z,101754.77
2018-09-03T21:02:36.025Z,101757.70
2018-09-03T21:05:05.013Z,101762.86
2018-09-03T21:07:33.851Z,101762.33
2018-09-03T21:10:02.632Z,101759.65
2018-09-03T21:12:31.597Z,101760.91
2018-09-03T21:15:00.159Z,101758.49
2018-09-03T21:17:28.616Z,101752.85
2018-09-03T21:19:57.176Z,101761.45
2018-09-03T21:22:25.568Z,101758.98
2018-09-03T21:24:54.214Z,101758.45
2018-09-03T21:27:22.660Z,101763.25
2018-09-03T21:29:50.933Z,101761.84
2018-09-03T21:32:19.333Z,101761.09
2018-09-03T21:34:47.578Z,101768.27
2018-09-03T21:37:16.472Z,101771.02
2018-09-03T21:39:44.904Z,101774.80
2018-09-03T21:42:13.125Z,101773.38
2018-09-03T21:44:41.473Z,101779.52
2018-09-03T21:47:09.776Z,101775.50
2018-09-03T21:49:38.132Z,101776.19
2018-09-03T21:52:06.502Z,101782.04
2018-09-03T21:54:34.940Z,101778.56
2018-09-03T21:57:03.261Z,101781.21
2018-09-03T21:59:31.496Z,101780.11
2018-09-03T22:01:59.839Z,101779.88
2018-09-03T22:04:28.365Z,101773.42
2018-09-03T22:06:56.733Z,101771.30
2018-09-03T22:09:25.097Z,101773.94
2018-09-03T22:11:53.694Z,101773.66
2018-09-03T22:14:22.081Z,101772.87
2018-09-03T22:16:50.282Z,101779.81
2018-09-03T22:19:18.743Z,101776.22
2018-09-03T22:21:47.230Z,101777.28
2018-09-03T22:24:15.501Z,101781.88
2018-09-03T22:26:44.216Z,101779.69
2018-09-03T22:29:12.886Z,101775.70
2018-09-03T22:31:41.463Z,101784.81
2018-09-03T22:34:09.899Z,101779.34
2018-09-03T22:36:38.277Z,101777.89
2018-09-03T22:39:07.476Z,101774.33
2018-09-03T22:41:35.806Z,101782.53
2018-09-03T22:44:04.121Z,101777.34
2018-09-03T22:46:32.500Z,101778.12
2018-09-03T22:49:00.979Z,101778.20
2018-09-03T22:51:29.210Z,101779.82
2018-09-03T22:53:57.591Z,101778.20
2018-09-03T22:56:26.072Z,101779.66
2018-09-03T22:58:54.396Z,101774.30
2018-09-03T23:01:22.670Z,101776.20
2018-09-03T23:03:50.962Z,101771.86
2018-09-03T23:06:19.294Z,101773.19
2018-09-03T23:08:47.601Z,101763.29
2018-09-03T23:11:15.906Z,101766.92
2018-09-03T23:13:44.108Z,101763.73
2018-09-03T23:16:12.347Z,101762.55
2018-09-03T23:18:40.663Z,101758.75
2018-09-03T23:21:08.938Z,101758.05
2018-09-03T23:23:37.159Z,101758.36
2018-09-03T23:26:05.409Z,101757.62
2018-09-03T23:28:33.747Z,101756.42
2018-09-03T23:31:02.011Z,101757.28
2018-09-03T23:33:30.383Z,101755.06
2018-09-03T23:35:58.682Z,101752.89
2018-09-03T23:38:26.982Z,101752.24
2018-09-03T23:40:55.420Z,101749.98
2018-09-03T23:43:23.667Z,101753.27
2018-09-03T23:45:51.959Z,101750.69
2018-09-03T23:48:20.266Z,101751.91
2018-09-03T23:50:48.453Z,101746.86
2018-09-03T23:53:16.812Z,101739.55
2018-09-03T23:55:45.076Z,101739.01
2018-09-03T23:58:13.348Z,101734.02
